sensor_id;sensor_type;location;lat;lon;timestamp;pressure;altitude;pressure_sealevel;temperature;humidity
13695;BME280;6919;52.344;14.518;2024-01-11T00:01:26;102226.66;;;-7.29;100.00
13695;BME280;6919;52.344;14.518;2024-01-11T00:03:55;102214.50;;;-7.30;100.00
13695;BME280;6919;52.344;14.518;2024-01-11T00:06:23;102206.69;;;-7.29;100.00
13695;BME280;6919;52.344;14.518;2024-01-11T00:09:00;102208.41;;;-7.25;100.00
13695;BME280;6919;52.344;14.518;2024-01-11T00:11:28;102208.41;;;-7.25;100.00
13695;BME280;6919;52.344;14.518;2024-01-11T00:13:57;102211.88;;;-7.26;100.00
13695;BME280;6919;52.344;14.518;2024-01-11T00:16:25;102214.50;;;-7.23;100.00
13695;BME280;6919;52.344;14.518;2024-01-11T00:18:54;102198.78;;;-7.08;100.00
13695;BME280;6919;52.344;14.518;2024-01-11T00:21:24;102191.94;;;-7.30;100.00
13695;BME280;6919;52.344;14.518;2024-01-11T00:23:52;102185.88;;;-7.56;100.00
13695;BME280;6919;52.344;14.518;2024-01-11T00:26:22;102179.00;;;-7.69;100.00
13695;BME280;6919;52.344;14.518;2024-01-11T00:28:51;102162.50;;;-7.68;100.00
13695;BME280;6919;52.344;14.518;2024-01-11T00:31:19;102153.78;;;-7.61;100.00
13695;BME280;6919;52.344;14.518;2024-01-11T00:33:48;102172.88;;;-7.54;100.00
13695;BME280;6919;52.344;14.518;2024-01-11T00:36:18;102181.56;;;-7.48;100.00
13695;BME280;6919;52.344;14.518;2024-01-11T00:38:47;102178.03;;;-7.39;100.00
13695;BME280;6919;52.344;14.518;2024-01-11T00:41:15;102173.69;;;-7.40;100.00
13695;BME280;6919;52.344;14.518;2024-01-11T00:43:45;102167.66;;;-7.51;100.00
13695;BME280;6919;52.344;14.518;2024-01-11T00:46:13;102152.94;;;-7.67;100.00
13695;BME280;6919;52.344;14.518;2024-01-11T00:48:42;102151.28;;;-8.13;100.00
13695;BME280;6919;52.344;14.518;2024-01-11T00:51:10;102146.97;;;-8.40;100.00
13695;BME280;6919;52.344;14.518;2024-01-11T00:53:38;102120.06;;;-8.49;100.00
13695;BME280;6919;52.344;14.518;2024-01-11T00:56:15;102140.84;;;-8.46;100.00
13695;BME280;6919;52.344;14.518;2024-01-11T00:58:45;102165.16;;;-8.28;100.00
13695;BME280;6919;52.344;14.518;2024-01-11T01:01:15;102177.28;;;-8.00;100.00
13695;BME280;6919;52.344;14.518;2024-01-11T01:03:43;102165.97;;;-7.75;100.00
13695;BME280;6919;52.344;14.518;2024-01-11T01:06:12;102140.78;;;-7.64;100.00
13695;BME280;6919;52.344;14.518;2024-01-11T01:08:40;102117.34;;;-7.70;100.00
13695;BME280;6919;52.344;14.518;2024-01-11T01:11:09;102113.91;;;-7.79;100.00
13695;BME280;6919;52.344;14.518;2024-01-11T01:13:37;102083.59;;;-8.00;100.00
13695;BME280;6919;52.344;14.518;2024-01-11T01:16:09;102087.94;;;-8.18;100.00
13695;BME280;6919;52.344;14.518;2024-01-11T01:18:38;102098.38;;;-8.26;100.00
13695;BME280;6919;52.344;14.518;2024-01-11T01:21:06;102107.88;;;-8.11;100.00
13695;BME280;6919;52.344;14.518;2024-01-11T01:23:34;102117.44;;;-7.95;100.00
13695;BME280;6919;52.344;14.518;2024-01-11T01:26:03;102118.25;;;-7.81;100.00
13695;BME280;6919;52.344;14.518;2024-01-11T01:28:33;102123.44;;;-7.72;100.00
13695;BME280;6919;52.344;14.518;2024-01-11T01:31:03;102139.06;;;-7.65;100.00
13695;BME280;6919;52.344;14.518;2024-01-11T01:33:33;102135.56;;;-7.59;100.00
13695;BME280;6919;52.344;14.518;2024-01-11T01:36:02;102142.50;;;-7.49;100.00
13695;BME280;6919;52.344;14.518;2024-01-11T01:38:30;102135.53;;;-7.49;100.00
13695;BME280;6919;52.344;14.518;2024-01-11T01:40:58;102133.75;;;-7.38;100.00
13695;BME280;6919;52.344;14.518;2024-01-11T01:43:27;102133.78;;;-7.47;100.00
13695;BME280;6919;52.344;14.518;2024-01-11T01:45:56;102142.50;;;-7.48;100.00
13695;BME280;6919;52.344;14.518;2024-01-11T01:48:26;102142.44;;;-7.40;100.00
13695;BME280;6919;52.344;14.518;2024-01-11T01:50:56;102151.13;;;-7.35;100.00
13695;BME280;6919;52.344;14.518;2024-01-11T01:53:28;102153.69;;;-7.32;100.00
13695;BME280;6919;52.344;14.518;2024-01-11T01:55:57;102158.94;;;-7.35;100.00
13695;BME280;6919;52.344;14.518;2024-01-11T01:58:26;102163.28;;;-7.42;100.00
13695;BME280;6919;52.344;14.518;2024-01-11T02:00:55;102156.34;;;-7.35;100.00
13695;BME280;6919;52.344;14.518;2024-01-11T02:03:26;102171.09;;;-7.40;100.00
13695;BME280;6919;52.344;14.518;2024-01-11T02:05:57;102163.28;;;-7.42;100.00
13695;BME280;6919;52.344;14.518;2024-01-11T02:08:28;102166.75;;;-7.37;100.00
13695;BME280;6919;52.344;14.518;2024-01-11T02:10:59;102182.38;;;-7.34;100.00
13695;BME280;6919;52.344;14.518;2024-01-11T02:13:28;102170.22;;;-7.35;100.00
13695;BME280;6919;52.344;14.518;2024-01-11T02:15:56;102178.03;;;-7.32;100.00
13695;BME280;6919;52.344;14.518;2024-01-11T02:18:24;102172.81;;;-7.27;100.00
13695;BME280;6919;52.344;14.518;2024-01-11T02:20:53;102169.25;;;-7.10;100.00
13695;BME280;6919;52.344;14.518;2024-01-11T02:23:26;102165.81;;;-7.22;100.00
13695;BME280;6919;52.344;14.518;2024-01-11T02:25:56;102165.81;;;-7.24;100.00
13695;BME280;6919;52.344;14.518;2024-01-11T02:28:24;102164.09;;;-7.26;100.00
13695;BME280;6919;52.344;14.518;2024-01-11T02:30:52;102168.50;;;-7.43;100.00
13695;BME280;6919;52.344;14.518;2024-01-11T02:33:21;102164.16;;;-7.41;100.00
13695;BME280;6919;52.344;14.518;2024-01-11T02:35:50;102159.88;;;-7.65;100.00
13695;BME280;6919;52.344;14.518;2024-01-11T02:38:19;102159.88;;;-7.75;100.00
13695;BME280;6919;52.344;14.518;2024-01-11T02:40:49;102148.63;;;-7.86;100.00
13695;BME280;6919;52.344;14.518;2024-01-11T02:43:19;102146.03;;;-8.06;100.00
13695;BME280;6919;52.344;14.518;2024-01-11T02:45:48;102139.13;;;-8.05;100.00
13695;BME280;6919;52.344;14.518;2024-01-11T02:48:16;102140.84;;;-8.12;100.00
13695;BME280;6919;52.344;14.518;2024-01-11T02:50:44;102143.47;;;-8.13;100.00
13695;BME280;6919;52.344;14.518;2024-01-11T02:53:13;102131.31;;;-8.05;100.00
13695;BME280;6919;52.344;14.518;2024-01-11T02:55:41;102133.00;;;-7.88;100.00
13695;BME280;6919;52.344;14.518;2024-01-11T02:58:09;102118.22;;;-7.72;100.00
13695;BME280;6919;52.344;14.518;2024-01-11T03:00:39;102106.09;;;-7.84;100.00
13695;BME280;6919;52.344;14.518;2024-01-11T03:03:07;102111.34;;;-7.99;100.00
13695;BME280;6919;52.344;14.518;2024-01-11T03:05:35;102139.09;;;-7.93;100.00
13695;BME280;6919;52.344;14.518;2024-01-11T03:08:05;102128.69;;;-7.81;100.00
13695;BME280;6919;52.344;14.518;2024-01-11T03:10:33;102126.03;;;-7.69;100.00
13695;BME280;6919;52.344;14.518;2024-01-11T03:13:01;102127.75;;;-7.58;100.00
13695;BME280;6919;52.344;14.518;2024-01-11T03:15:30;102127.75;;;-7.55;100.00
13695;BME280;6919;52.344;14.518;2024-01-11T03:18:00;102124.25;;;-7.51;100.00
13695;BME280;6919;52.344;14.518;2024-01-11T03:20:28;102124.25;;;-7.51;100.00
13695;BME280;6919;52.344;14.518;2024-01-11T03:22:57;102110.38;;;-7.53;100.00
13695;BME280;6919;52.344;14.518;2024-01-11T03:25:25;102118.19;;;-7.59;100.00
13695;BME280;6919;52.344;14.518;2024-01-11T03:27:54;102128.59;;;-7.53;100.00
13695;BME280;6919;52.344;14.518;2024-01-11T03:30:22;102134.69;;;-7.52;100.00
13695;BME280;6919;52.344;14.518;2024-01-11T03:32:50;102138.13;;;-7.47;100.00
13695;BME280;6919;52.344;14.518;2024-01-11T03:35:22;102125.97;;;-7.45;100.00
13695;BME280;6919;52.344;14.518;2024-01-11T03:37:50;102119.06;;;-7.48;100.00
13695;BME280;6919;52.344;14.518;2024-01-11T03:40:19;102107.75;;;-7.42;100.00
13695;BME280;6919;52.344;14.518;2024-01-11T03:42:47;102103.44;;;-7.58;100.00
13695;BME280;6919;52.344;14.518;2024-01-11T03:45:18;102099.16;;;-7.83;100.00
13695;BME280;6919;52.344;14.518;2024-01-11T03:47:46;102095.72;;;-7.97;100.00
13695;BME280;6919;52.344;14.518;2024-01-11T03:50:15;102080.94;;;-7.86;100.00
13695;BME280;6919;52.344;14.518;2024-01-11T03:52:44;102080.06;;;-7.84;100.00
13695;BME280;6919;52.344;14.518;2024-01-11T03:55:13;102066.22;;;-7.87;100.00
13695;BME280;6919;52.344;14.518;2024-01-11T03:57:41;102071.41;;;-7.86;100.00
13695;BME280;6919;52.344;14.518;2024-01-11T04:00:12;102091.34;;;-7.79;100.00
13695;BME280;6919;52.344;14.518;2024-01-11T04:02:41;102094.78;;;-7.66;100.00
13695;BME280;6919;52.344;14.518;2024-01-11T04:05:09;102093.91;;;-7.64;100.00
13695;BME280;6919;52.344;14.518;2024-01-11T04:07:38;102097.41;;;-7.62;100.00
13695;BME280;6919;52.344;14.518;2024-01-11T04:10:08;102094.75;;;-7.56;100.00
13695;BME280;6919;52.344;14.518;2024-01-11T04:12:37;102101.72;;;-7.53;100.00
13695;BME280;6919;52.344;14.518;2024-01-11T04:15:07;102119.03;;;-7.46;100.00
13695;BME280;6919;52.344;14.518;2024-01-11T04:17:35;102122.47;;;-7.35;100.00
13695;BME280;6919;52.344;14.518;2024-01-11T04:20:06;102118.94;;;-7.24;100.00
13695;BME280;6919;52.344;14.518;2024-01-11T04:22:35;102119.81;;;-7.28;100.00
13695;BME280;6919;52.344;14.518;2024-01-11T04:25:05;102111.16;;;-7.27;100.00
13695;BME280;6919;52.344;14.518;2024-01-11T04:27:34;102091.13;;;-7.19;100.00
13695;BME280;6919;52.344;14.518;2024-01-11T04:30:04;102084.97;;;-7.06;100.00
13695;BME280;6919;52.344;14.518;2024-01-11T04:32:32;102102.34;;;-7.02;100.00
13695;BME280;6919;52.344;14.518;2024-01-11T04:35:00;102096.34;;;-7.22;100.00
13695;BME280;6919;52.344;14.518;2024-01-11T04:37:29;102100.66;;;-7.12;100.00
13695;BME280;6919;52.344;14.518;2024-01-11T04:39:57;102083.22;;;-6.98;100.00
13695;BME280;6919;52.344;14.518;2024-01-11T04:42:27;102089.22;;;-6.85;100.00
13695;BME280;6919;52.344;14.518;2024-01-11T04:44:57;102110.88;;;-6.76;100.00
13695;BME280;6919;52.344;14.518;2024-01-11T04:47:25;102117.78;;;-6.72;100.00
13695;BME280;6919;52.344;14.518;2024-01-11T04:49:53;102094.34;;;-6.73;100.00
13695;BME280;6919;52.344;14.518;2024-01-11T04:52:22;102090.16;;;-7.01;100.00
13695;BME280;6919;52.344;14.518;2024-01-11T04:54:50;102110.09;;;-6.90;100.00
13695;BME280;6919;52.344;14.518;2024-01-11T04:57:18;102093.53;;;-6.83;100.00
13695;BME280;6919;52.344;14.518;2024-01-11T04:59:46;102070.22;;;-7.08;100.00
13695;BME280;6919;52.344;14.518;2024-01-11T05:02:16;102065.88;;;-7.08;100.00
13695;BME280;6919;52.344;14.518;2024-01-11T05:04:44;102063.97;;;-6.82;100.00
13695;BME280;6919;52.344;14.518;2024-01-11T05:07:13;102066.53;;;-6.76;100.00
13695;BME280;6919;52.344;14.518;2024-01-11T05:09:41;102085.66;;;-6.74;100.00
13695;BME280;6919;52.344;14.518;2024-01-11T05:12:09;102069.97;;;-6.69;100.00
13695;BME280;6919;52.344;14.518;2024-01-11T05:14:37;102060.38;;;-6.66;100.00
13695;BME280;6919;52.344;14.518;2024-01-11T05:17:06;102075.84;;;-6.42;100.00
13695;BME280;6919;52.344;14.518;2024-01-11T05:19:36;102102.72;;;-6.31;100.00
13695;BME280;6919;52.344;14.518;2024-01-11T05:22:05;102097.59;;;-6.43;100.00
13695;BME280;6919;52.344;14.518;2024-01-11T05:24:33;102065.59;;;-6.66;100.00
13695;BME280;6919;52.344;14.518;2024-01-11T05:27:01;102050.13;;;-6.88;100.00
13695;BME280;6919;52.344;14.518;2024-01-11T05:29:29;102083.06;;;-6.77;100.00
13695;BME280;6919;52.344;14.518;2024-01-11T05:31:59;102072.66;;;-6.77;100.00
13695;BME280;6919;52.344;14.518;2024-01-11T05:34:28;102082.34;;;-7.06;100.00
13695;BME280;6919;52.344;14.518;2024-01-11T05:36:57;102057.16;;;-7.01;100.00
13695;BME280;6919;52.344;14.518;2024-01-11T05:39:27;102064.09;;;-6.98;100.00
13695;BME280;6919;52.344;14.518;2024-01-11T05:41:55;102062.34;;;-6.98;100.00
13695;BME280;6919;52.344;14.518;2024-01-11T05:44:23;102071.03;;;-6.99;100.00
13695;BME280;6919;52.344;14.518;2024-01-11T05:46:52;102077.09;;;-6.95;100.00
13695;BME280;6919;52.344;14.518;2024-01-11T05:49:20;102060.59;;;-6.96;100.00
13695;BME280;6919;52.344;14.518;2024-01-11T05:51:48;102059.59;;;-6.77;100.00
13695;BME280;6919;52.344;14.518;2024-01-11T05:54:18;102074.34;;;-6.70;100.00
13695;BME280;6919;52.344;14.518;2024-01-11T05:56:46;102077.66;;;-6.53;100.00
13695;BME280;6919;52.344;14.518;2024-01-11T05:59:14;102073.34;;;-6.55;100.00
13695;BME280;6919;52.344;14.518;2024-01-11T06:01:43;102065.56;;;-6.60;100.00
13695;BME280;6919;52.344;14.518;2024-01-11T06:04:11;102070.09;;;-6.92;100.00
13695;BME280;6919;52.344;14.518;2024-01-11T06:06:40;102064.16;;;-7.09;100.00
13695;BME280;6919;52.344;14.518;2024-01-11T06:09:09;102065.00;;;-7.07;100.00
13695;BME280;6919;52.344;14.518;2024-01-11T06:11:39;102062.28;;;-6.90;100.00
13695;BME280;6919;52.344;14.518;2024-01-11T06:14:07;102057.03;;;-6.86;100.00
13695;BME280;6919;52.344;14.518;2024-01-11T06:16:36;102059.75;;;-7.02;100.00
13695;BME280;6919;52.344;14.518;2024-01-11T06:19:04;102064.22;;;-7.24;100.00
13695;BME280;6919;52.344;14.518;2024-01-11T06:21:34;102062.50;;;-7.28;100.00
13695;BME280;6919;52.344;14.518;2024-01-11T06:24:03;102056.47;;;-7.31;100.00
13695;BME280;6919;52.344;14.518;2024-01-11T06:26:31;102053.84;;;-7.30;100.00
13695;BME280;6919;52.344;14.518;2024-01-11T06:29:01;102065.00;;;-7.10;100.00
13695;BME280;6919;52.344;14.518;2024-01-11T06:31:30;102046.84;;;-7.22;100.00
13695;BME280;6919;52.344;14.518;2024-01-11T06:33:58;102061.66;;;-7.30;100.00
13695;BME280;6919;52.344;14.518;2024-01-11T06:36:27;102053.84;;;-7.27;100.00
13695;BME280;6919;52.344;14.518;2024-01-11T06:38:55;102045.97;;;-7.24;100.00
13695;BME280;6919;52.344;14.518;2024-01-11T06:41:23;102046.81;;;-7.16;100.00
13695;BME280;6919;52.344;14.518;2024-01-11T06:43:52;102033.69;;;-7.01;100.00
13695;BME280;6919;52.344;14.518;2024-01-11T06:46:21;102036.34;;;-7.10;100.00
13695;BME280;6919;52.344;14.518;2024-01-11T06:48:50;102048.31;;;-6.82;100.00
13695;BME280;6919;52.344;14.518;2024-01-11T06:51:21;102037.06;;;-6.82;100.00
13695;BME280;6919;52.344;14.518;2024-01-11T06:53:50;102031.72;;;-6.70;100.00
13695;BME280;6919;52.344;14.518;2024-01-11T06:56:19;102007.47;;;-6.78;100.00
13695;BME280;6919;52.344;14.518;2024-01-11T06:58:48;101988.34;;;-6.82;100.00
13695;BME280;6919;52.344;14.518;2024-01-11T07:01:17;101981.47;;;-6.90;100.00
13695;BME280;6919;52.344;14.518;2024-01-11T07:03:48;101997.06;;;-6.83;100.00
13695;BME280;6919;52.344;14.518;2024-01-11T07:06:17;102021.19;;;-6.58;100.00
13695;BME280;6919;52.344;14.518;2024-01-11T07:08:47;102027.16;;;-6.46;100.00
13695;BME280;6919;52.344;14.518;2024-01-11T07:11:17;102025.44;;;-6.48;100.00
13695;BME280;6919;52.344;14.518;2024-01-11T07:13:45;102023.59;;;-6.36;100.00
13695;BME280;6919;52.344;14.518;2024-01-11T07:16:13;102022.56;;;-6.15;100.00
13695;BME280;6919;52.344;14.518;2024-01-11T07:18:42;102023.50;;;-6.22;100.00
13695;BME280;6919;52.344;14.518;2024-01-11T07:21:12;102033.97;;;-6.27;100.00
13695;BME280;6919;52.344;14.518;2024-01-11T07:23:41;102021.84;;;-6.31;100.00
13695;BME280;6919;52.344;14.518;2024-01-11T07:26:09;102029.38;;;-6.03;100.00
13695;BME280;6919;52.344;14.518;2024-01-11T07:28:37;102030.94;;;-5.87;100.00
13695;BME280;6919;52.344;14.518;2024-01-11T07:31:06;102027.28;;;-5.73;100.00
13695;BME280;6919;52.344;14.518;2024-01-11T07:33:34;102021.41;;;-5.91;100.00
13695;BME280;6919;52.344;14.518;2024-01-11T07:36:05;102022.84;;;-5.66;100.00
13695;BME280;6919;52.344;14.518;2024-01-11T07:38:35;102017.88;;;-5.86;100.00
13695;BME280;6919;52.344;14.518;2024-01-11T07:41:03;102015.00;;;-5.66;100.00
13695;BME280;6919;52.344;14.518;2024-01-11T07:43:32;102004.59;;;-5.71;100.00
13695;BME280;6919;52.344;14.518;2024-01-11T07:46:19;101996.09;;;-5.86;100.00
13695;BME280;6919;52.344;14.518;2024-01-11T07:49:01;102008.13;;;-5.75;100.00
13695;BME280;6919;52.344;14.518;2024-01-11T07:51:30;102000.81;;;-5.49;100.00
13695;BME280;6919;52.344;14.518;2024-01-11T07:54:00;101988.88;;;-5.66;100.00
13695;BME280;6919;52.344;14.518;2024-01-11T07:56:29;101997.50;;;-5.61;100.00
13695;BME280;6919;52.344;14.518;2024-01-11T07:58:58;102003.38;;;-5.44;100.00
13695;BME280;6919;52.344;14.518;2024-01-11T08:01:26;101998.06;;;-5.37;100.00
13695;BME280;6919;52.344;14.518;2024-01-11T08:03:55;102001.78;;;-5.56;100.00
13695;BME280;6919;52.344;14.518;2024-01-11T08:06:23;102005.91;;;-5.37;100.00
13695;BME280;6919;52.344;14.518;2024-01-11T08:08:52;102000.56;;;-5.29;100.00
13695;BME280;6919;52.344;14.518;2024-01-11T08:11:22;101988.31;;;-5.24;100.00
13695;BME280;6919;52.344;14.518;2024-01-11T08:13:50;101988.09;;;-5.11;100.00
13695;BME280;6919;52.344;14.518;2024-01-11T08:16:21;102006.03;;;-4.85;100.00
13695;BME280;6919;52.344;14.518;2024-01-11T08:18:50;102008.41;;;-4.72;100.00
13695;BME280;6919;52.344;14.518;2024-01-11T08:21:19;102007.34;;;-4.60;100.00
13695;BME280;6919;52.344;14.518;2024-01-11T08:23:48;102010.88;;;-4.63;100.00
13695;BME280;6919;52.344;14.518;2024-01-11T08:26:16;102014.91;;;-4.42;100.00
13695;BME280;6919;52.344;14.518;2024-01-11T08:28:48;102008.00;;;-4.46;100.00
13695;BME280;6919;52.344;14.518;2024-01-11T08:31:16;102008.09;;;-4.52;100.00
13695;BME280;6919;52.344;14.518;2024-01-11T08:33:44;102006.38;;;-4.55;100.00
13695;BME280;6919;52.344;14.518;2024-01-11T08:36:13;101991.09;;;-4.30;100.00
13695;BME280;6919;52.344;14.518;2024-01-11T08:38:41;101984.63;;;-4.10;100.00
13695;BME280;6919;52.344;14.518;2024-01-11T08:41:10;101988.91;;;-4.06;100.00
13695;BME280;6919;52.344;14.518;2024-01-11T08:43:39;101979.72;;;-3.82;100.00
13695;BME280;6919;52.344;14.518;2024-01-11T08:46:08;101993.47;;;-3.71;100.00
13695;BME280;6919;52.344;14.518;2024-01-11T08:48:37;101996.00;;;-3.67;100.00
13695;BME280;6919;52.344;14.518;2024-01-11T08:51:05;101986.72;;;-3.84;100.00
13695;BME280;6919;52.344;14.518;2024-01-11T08:53:35;101972.44;;;-3.68;100.00
13695;BME280;6919;52.344;14.518;2024-01-11T08:56:04;101964.97;;;-3.86;100.00
13695;BME280;6919;52.344;14.518;2024-01-11T08:58:33;101956.88;;;-3.77;100.00
13695;BME280;6919;52.344;14.518;2024-01-11T09:01:01;101968.00;;;-3.66;100.00
13695;BME280;6919;52.344;14.518;2024-01-11T09:03:32;101972.97;;;-3.51;100.00
13695;BME280;6919;52.344;14.518;2024-01-11T09:06:01;101971.78;;;-3.38;100.00
13695;BME280;6919;52.344;14.518;2024-01-11T09:08:30;101974.13;;;-3.25;100.00
13695;BME280;6919;52.344;14.518;2024-01-11T09:10:59;101979.19;;;-3.19;100.00
13695;BME280;6919;52.344;14.518;2024-01-11T09:13:28;101981.66;;;-3.11;100.00
13695;BME280;6919;52.344;14.518;2024-01-11T09:15:58;101985.63;;;-2.93;100.00
13695;BME280;6919;52.344;14.518;2024-01-11T09:18:26;101988.19;;;-2.92;100.00
13695;BME280;6919;52.344;14.518;2024-01-11T09:20:56;101983.63;;;-2.82;100.00
13695;BME280;6919;52.344;14.518;2024-01-11T09:23:25;101990.31;;;-2.71;100.00
13695;BME280;6919;52.344;14.518;2024-01-11T09:25:53;101993.25;;;-2.83;100.00
13695;BME280;6919;52.344;14.518;2024-01-11T09:28:21;101981.22;;;-2.93;100.00
13695;BME280;6919;52.344;14.518;2024-01-11T09:30:50;101967.13;;;-2.89;100.00
13695;BME280;6919;52.344;14.518;2024-01-11T09:33:18;101963.25;;;-2.73;100.00
13695;BME280;6919;52.344;14.518;2024-01-11T09:35:47;101969.94;;;-2.60;100.00
13695;BME280;6919;52.344;14.518;2024-01-11T09:38:16;101966.31;;;-2.56;100.00
13695;BME280;6919;52.344;14.518;2024-01-11T09:40:45;101962.50;;;-2.78;100.00
13695;BME280;6919;52.344;14.518;2024-01-11T09:43:15;101952.13;;;-2.82;100.00
13695;BME280;6919;52.344;14.518;2024-01-11T09:45:44;101952.03;;;-2.79;100.00
13695;BME280;6919;52.344;14.518;2024-01-11T09:48:13;101954.22;;;-2.61;100.00
13695;BME280;6919;52.344;14.518;2024-01-11T09:50:41;101948.69;;;-2.51;100.00
13695;BME280;6919;52.344;14.518;2024-01-11T09:53:11;101951.84;;;-2.38;100.00
13695;BME280;6919;52.344;14.518;2024-01-11T09:55:41;101958.63;;;-2.63;100.00
13695;BME280;6919;52.344;14.518;2024-01-11T09:58:11;101961.47;;;-2.39;100.00
13695;BME280;6919;52.344;14.518;2024-01-11T10:00:39;101958.69;;;-2.33;100.00
13695;BME280;6919;52.344;14.518;2024-01-11T10:03:08;101972.81;;;-2.37;100.00
13695;BME280;6919;52.344;14.518;2024-01-11T10:05:36;101976.72;;;-2.19;100.00
13695;BME280;6919;52.344;14.518;2024-01-11T10:08:06;101986.66;;;-1.98;100.00
13695;BME280;6919;52.344;14.518;2024-01-11T10:10:35;101964.44;;;-1.87;100.00
13695;BME280;6919;52.344;14.518;2024-01-11T10:13:05;101977.16;;;-2.04;100.00
13695;BME280;6919;52.344;14.518;2024-01-11T10:15:33;101972.44;;;-1.91;100.00
13695;BME280;6919;52.344;14.518;2024-01-11T10:18:02;101981.31;;;-1.95;100.00
13695;BME280;6919;52.344;14.518;2024-01-11T10:20:31;101988.88;;;-1.83;100.00
13695;BME280;6919;52.344;14.518;2024-01-11T10:23:00;101982.97;;;-1.61;100.00
13695;BME280;6919;52.344;14.518;2024-01-11T10:25:29;101982.28;;;-1.67;100.00
13695;BME280;6919;52.344;14.518;2024-01-11T10:27:58;101992.63;;;-1.61;100.00
13695;BME280;6919;52.344;14.518;2024-01-11T10:30:28;101994.28;;;-1.59;100.00
13695;BME280;6919;52.344;14.518;2024-01-11T10:32:57;101998.75;;;-1.61;100.00
13695;BME280;6919;52.344;14.518;2024-01-11T10:35:26;101989.13;;;-1.62;100.00
13695;BME280;6919;52.344;14.518;2024-01-11T10:37:57;101983.78;;;-1.59;100.00
13695;BME280;6919;52.344;14.518;2024-01-11T10:40:26;101990.28;;;-1.72;100.00
13695;BME280;6919;52.344;14.518;2024-01-11T10:42:59;101974.00;;;-1.84;100.00
13695;BME280;6919;52.344;14.518;2024-01-11T10:45:32;101964.72;;;-1.96;100.00
13695;BME280;6919;52.344;14.518;2024-01-11T10:48:13;101974.94;;;-1.87;100.00
13695;BME280;6919;52.344;14.518;2024-01-11T10:50:44;101983.63;;;-1.83;100.00
13695;BME280;6919;52.344;14.518;2024-01-11T10:53:25;101984.53;;;-1.86;100.00
13695;BME280;6919;52.344;14.518;2024-01-11T10:55:58;101980.25;;;-1.88;100.00
13695;BME280;6919;52.344;14.518;2024-01-11T10:58:27;101973.16;;;-1.85;100.00
13695;BME280;6919;52.344;14.518;2024-01-11T11:00:59;101974.63;;;-1.75;100.00
13695;BME280;6919;52.344;14.518;2024-01-11T11:03:30;101972.78;;;-1.73;100.00
13695;BME280;6919;52.344;14.518;2024-01-11T11:06:00;101970.47;;;-1.83;100.00
13695;BME280;6919;52.344;14.518;2024-01-11T11:08:29;101958.09;;;-1.80;100.00
13695;BME280;6919;52.344;14.518;2024-01-11T11:11:00;101962.44;;;-1.79;100.00
13695;BME280;6919;52.344;14.518;2024-01-11T11:13:31;101961.72;;;-1.84;100.00
13695;BME280;6919;52.344;14.518;2024-01-11T11:16:01;101961.72;;;-1.84;100.00
13695;BME280;6919;52.344;14.518;2024-01-11T11:18:32;101954.91;;;-1.91;100.00
13695;BME280;6919;52.344;14.518;2024-01-11T11:21:09;101958.22;;;-1.84;100.00
13695;BME280;6919;52.344;14.518;2024-01-11T11:23:38;101947.72;;;-1.84;100.00
13695;BME280;6919;52.344;14.518;2024-01-11T11:26:14;101952.31;;;-1.92;100.00
13695;BME280;6919;52.344;14.518;2024-01-11T11:28:43;101954.19;;;-1.96;100.00
13695;BME280;6919;52.344;14.518;2024-01-11T11:31:13;101948.31;;;-2.05;100.00
13695;BME280;6919;52.344;14.518;2024-01-11T11:34:01;101940.34;;;-2.02;100.00
13695;BME280;6919;52.344;14.518;2024-01-11T11:36:33;101948.16;;;-1.99;100.00
13695;BME280;6919;52.344;14.518;2024-01-11T11:39:02;101936.16;;;-2.09;100.00
13695;BME280;6919;52.344;14.518;2024-01-11T11:41:31;101941.22;;;-2.02;100.00
13695;BME280;6919;52.344;14.518;2024-01-11T11:44:04;101944.59;;;-1.98;100.00
13695;BME280;6919;52.344;14.518;2024-01-11T11:46:35;101945.41;;;-1.95;100.00
13695;BME280;6919;52.344;14.518;2024-01-11T11:49:03;101948.81;;;-1.93;100.00
13695;BME280;6919;52.344;14.518;2024-01-11T11:51:33;101940.06;;;-1.92;100.00
13695;BME280;6919;52.344;14.518;2024-01-11T11:54:03;101932.19;;;-1.92;100.00
13695;BME280;6919;52.344;14.518;2024-01-11T11:56:33;101937.06;;;-1.80;100.00
13695;BME280;6919;52.344;14.518;2024-01-11T11:59:03;101942.41;;;-1.83;100.00
13695;BME280;6919;52.344;14.518;2024-01-11T12:01:35;101943.66;;;-1.65;100.00
13695;BME280;6919;52.344;14.518;2024-01-11T12:04:03;101933.75;;;-1.86;100.00
13695;BME280;6919;52.344;14.518;2024-01-11T12:06:32;101936.44;;;-1.88;100.00
13695;BME280;6919;52.344;14.518;2024-01-11T12:09:01;101942.19;;;-1.75;100.00
13695;BME280;6919;52.344;14.518;2024-01-11T12:11:30;101947.41;;;-1.74;100.00
13695;BME280;6919;52.344;14.518;2024-01-11T12:14:00;101942.06;;;-1.71;100.00
13695;BME280;6919;52.344;14.518;2024-01-11T12:16:28;101934.78;;;-1.61;100.00
13695;BME280;6919;52.344;14.518;2024-01-11T12:18:58;101940.78;;;-1.58;100.00
13695;BME280;6919;52.344;14.518;2024-01-11T12:21:26;101942.13;;;-1.72;100.00
13695;BME280;6919;52.344;14.518;2024-01-11T12:23:55;101942.44;;;-1.54;100.00
13695;BME280;6919;52.344;14.518;2024-01-11T12:26:23;101933.91;;;-1.62;100.00
13695;BME280;6919;52.344;14.518;2024-01-11T12:28:52;101927.88;;;-1.65;100.00
13695;BME280;6919;52.344;14.518;2024-01-11T12:31:21;101936.06;;;-1.76;100.00
13695;BME280;6919;52.344;14.518;2024-01-11T12:33:52;101932.41;;;-1.70;100.00
13695;BME280;6919;52.344;14.518;2024-01-11T12:36:23;101934.56;;;-1.54;100.00
13695;BME280;6919;52.344;14.518;2024-01-11T12:38:54;101938.56;;;-1.42;100.00
13695;BME280;6919;52.344;14.518;2024-01-11T12:41:23;101935.13;;;-1.44;100.00
13695;BME280;6919;52.344;14.518;2024-01-11T12:43:52;101929.22;;;-1.52;100.00
13695;BME280;6919;52.344;14.518;2024-01-11T12:46:21;101921.41;;;-1.54;100.00
13695;BME280;6919;52.344;14.518;2024-01-11T12:48:51;101918.69;;;-1.52;100.00
13695;BME280;6919;52.344;14.518;2024-01-11T12:51:21;101912.66;;;-1.54;100.00